sensor_id;sensor_type;location;lat;lon;timestamp;P1;durP1;ratioP1;P2;durP2;ratioP2
57846;SDS011;43675;50.030;21.952;2022-10-31T00:02:25;85.67;;;56.05;;
57846;SDS011;43675;50.030;21.952;2022-10-31T00:04:57;93.37;;;59.42;;
57846;SDS011;43675;50.030;21.952;2022-10-31T00:07:22;84.07;;;59.27;;
57846;SDS011;43675;50.030;21.952;2022-10-31T00:09:48;89.15;;;56.75;;
57846;SDS011;43675;50.030;21.952;2022-10-31T00:12:13;89.30;;;61.33;;
57846;SDS011;43675;50.030;21.952;2022-10-31T00:14:39;91.87;;;62.13;;
57846;SDS011;43675;50.030;21.952;2022-10-31T00:17:04;88.15;;;61.58;;
57846;SDS011;43675;50.030;21.952;2022-10-31T00:19:30;102.70;;;60.55;;
57846;SDS011;43675;50.030;21.952;2022-10-31T00:21:56;85.80;;;48.63;;
57846;SDS011;43675;50.030;21.952;2022-10-31T00:24:28;80.83;;;48.80;;
57846;SDS011;43675;50.030;21.952;2022-10-31T00:26:54;83.90;;;49.95;;
57846;SDS011;43675;50.030;21.952;2022-10-31T00:29:19;86.53;;;49.30;;
57846;SDS011;43675;50.030;21.952;2022-10-31T00:31:45;83.10;;;47.93;;
57846;SDS011;43675;50.030;21.952;2022-10-31T00:34:11;80.12;;;49.00;;
57846;SDS011;43675;50.030;21.952;2022-10-31T00:36:36;85.30;;;47.50;;
57846;SDS011;43675;50.030;21.952;2022-10-31T00:39:02;75.78;;;46.53;;
57846;SDS011;43675;50.030;21.952;2022-10-31T00:41:27;83.17;;;46.50;;
57846;SDS011;43675;50.030;21.952;2022-10-31T00:43:53;70.80;;;45.83;;
57846;SDS011;43675;50.030;21.952;2022-10-31T00:46:18;80.10;;;44.73;;
57846;SDS011;43675;50.030;21.952;2022-10-31T00:48:44;78.60;;;46.88;;
57846;SDS011;43675;50.030;21.952;2022-10-31T00:51:10;76.95;;;45.15;;
57846;SDS011;43675;50.030;21.952;2022-10-31T00:53:35;82.27;;;45.23;;
57846;SDS011;43675;50.030;21.952;2022-10-31T00:56:01;73.35;;;44.73;;
57846;SDS011;43675;50.030;21.952;2022-10-31T00:58:28;81.30;;;45.40;;
57846;SDS011;43675;50.030;21.952;2022-10-31T01:00:53;72.30;;;44.67;;
57846;SDS011;43675;50.030;21.952;2022-10-31T01:03:27;79.12;;;44.98;;
57846;SDS011;43675;50.030;21.952;2022-10-31T01:05:55;81.28;;;45.83;;
57846;SDS011;43675;50.030;21.952;2022-10-31T01:08:26;75.83;;;46.05;;
57846;SDS011;43675;50.030;21.952;2022-10-31T01:11:02;81.60;;;47.25;;
57846;SDS011;43675;50.030;21.952;2022-10-31T01:13:30;73.02;;;44.53;;
57846;SDS011;43675;50.030;21.952;2022-10-31T01:15:57;74.20;;;44.73;;
57846;SDS011;43675;50.030;21.952;2022-10-31T01:18:23;79.50;;;44.00;;
57846;SDS011;43675;50.030;21.952;2022-10-31T01:20:59;75.22;;;44.63;;
57846;SDS011;43675;50.030;21.952;2022-10-31T01:23:27;69.92;;;43.08;;
57846;SDS011;43675;50.030;21.952;2022-10-31T01:26:01;73.85;;;42.95;;
57846;SDS011;43675;50.030;21.952;2022-10-31T01:28:28;69.03;;;42.00;;
57846;SDS011;43675;50.030;21.952;2022-10-31T01:30:54;73.55;;;43.30;;
57846;SDS011;43675;50.030;21.952;2022-10-31T01:33:20;73.85;;;42.50;;
57846;SDS011;43675;50.030;21.952;2022-10-31T01:35:45;72.27;;;43.58;;
57846;SDS011;43675;50.030;21.952;2022-10-31T01:38:11;76.35;;;44.15;;
57846;SDS011;43675;50.030;21.952;2022-10-31T01:40:36;75.25;;;44.55;;
57846;SDS011;43675;50.030;21.952;2022-10-31T01:43:02;72.85;;;43.08;;
57846;SDS011;43675;50.030;21.952;2022-10-31T01:45:35;81.72;;;45.03;;
57846;SDS011;43675;50.030;21.952;2022-10-31T01:48:01;69.65;;;42.10;;
57846;SDS011;43675;50.030;21.952;2022-10-31T01:50:28;71.60;;;42.20;;
57846;SDS011;43675;50.030;21.952;2022-10-31T01:52:56;71.95;;;42.93;;
57846;SDS011;43675;50.030;21.952;2022-10-31T01:55:26;72.62;;;44.25;;
57846;SDS011;43675;50.030;21.952;2022-10-31T01:57:55;70.95;;;42.23;;
57846;SDS011;43675;50.030;21.952;2022-10-31T02:00:23;72.03;;;43.25;;
57846;SDS011;43675;50.030;21.952;2022-10-31T02:02:55;70.30;;;41.50;;
57846;SDS011;43675;50.030;21.952;2022-10-31T02:05:28;78.30;;;42.93;;
57846;SDS011;43675;50.030;21.952;2022-10-31T02:08:02;75.67;;;42.78;;
57846;SDS011;43675;50.030;21.952;2022-10-31T02:10:34;72.55;;;41.58;;
57846;SDS011;43675;50.030;21.952;2022-10-31T02:13:03;73.35;;;41.88;;
57846;SDS011;43675;50.030;21.952;2022-10-31T02:15:31;72.17;;;42.27;;
57846;SDS011;43675;50.030;21.952;2022-10-31T02:17:58;78.00;;;42.88;;
57846;SDS011;43675;50.030;21.952;2022-10-31T02:20:25;69.58;;;40.67;;
57846;SDS011;43675;50.030;21.952;2022-10-31T02:31:38;75.03;;;41.83;;
57846;SDS011;43675;50.030;21.952;2022-10-31T02:34:20;69.75;;;41.25;;
57846;SDS011;43675;50.030;21.952;2022-10-31T02:36:52;79.42;;;42.43;;
57846;SDS011;43675;50.030;21.952;2022-10-31T02:42:17;87.78;;;42.17;;
57846;SDS011;43675;50.030;21.952;2022-10-31T02:44:58;84.00;;;43.85;;
57846;SDS011;43675;50.030;21.952;2022-10-31T02:47:28;66.72;;;42.67;;
57846;SDS011;43675;50.030;21.952;2022-10-31T02:49:57;79.30;;;42.15;;
57846;SDS011;43675;50.030;21.952;2022-10-31T02:52:41;72.87;;;41.63;;
57846;SDS011;43675;50.030;21.952;2022-10-31T02:57:39;74.32;;;43.58;;
57846;SDS011;43675;50.030;21.952;2022-10-31T03:00:07;78.97;;;42.23;;
57846;SDS011;43675;50.030;21.952;2022-10-31T03:02:47;74.32;;;40.78;;
57846;SDS011;43675;50.030;21.952;2022-10-31T03:10:47;80.32;;;42.13;;
57846;SDS011;43675;50.030;21.952;2022-10-31T03:16:04;85.12;;;43.20;;
57846;SDS011;43675;50.030;21.952;2022-10-31T03:18:44;76.92;;;42.75;;
57846;SDS011;43675;50.030;21.952;2022-10-31T03:21:13;69.35;;;43.20;;
57846;SDS011;43675;50.030;21.952;2022-10-31T03:23:42;76.33;;;44.58;;
57846;SDS011;43675;50.030;21.952;2022-10-31T03:26:11;76.40;;;43.38;;
57846;SDS011;43675;50.030;21.952;2022-10-31T03:28:46;74.40;;;42.25;;
57846;SDS011;43675;50.030;21.952;2022-10-31T03:31:18;76.80;;;43.55;;
57846;SDS011;43675;50.030;21.952;2022-10-31T03:33:46;80.92;;;42.17;;
57846;SDS011;43675;50.030;21.952;2022-10-31T03:36:15;95.47;;;43.28;;
57846;SDS011;43675;50.030;21.952;2022-10-31T03:38:42;91.40;;;44.90;;
57846;SDS011;43675;50.030;21.952;2022-10-31T03:41:11;86.00;;;44.33;;
57846;SDS011;43675;50.030;21.952;2022-10-31T03:43:41;82.67;;;44.03;;
57846;SDS011;43675;50.030;21.952;2022-10-31T03:46:09;77.20;;;43.58;;
57846;SDS011;43675;50.030;21.952;2022-10-31T03:48:35;84.35;;;43.92;;
57846;SDS011;43675;50.030;21.952;2022-10-31T03:51:06;86.95;;;44.90;;
57846;SDS011;43675;50.030;21.952;2022-10-31T03:53:38;80.35;;;43.60;;
57846;SDS011;43675;50.030;21.952;2022-10-31T03:56:09;83.92;;;43.80;;
57846;SDS011;43675;50.030;21.952;2022-10-31T03:59:10;74.27;;;43.00;;
57846;SDS011;43675;50.030;21.952;2022-10-31T04:01:25;81.95;;;43.95;;
57846;SDS011;43675;50.030;21.952;2022-10-31T04:03:53;87.33;;;44.08;;
57846;SDS011;43675;50.030;21.952;2022-10-31T04:06:20;82.90;;;43.73;;
57846;SDS011;43675;50.030;21.952;2022-10-31T04:08:49;75.12;;;42.30;;
57846;SDS011;43675;50.030;21.952;2022-10-31T04:11:21;73.78;;;38.95;;
57846;SDS011;43675;50.030;21.952;2022-10-31T04:13:48;82.50;;;40.03;;
57846;SDS011;43675;50.030;21.952;2022-10-31T04:16:15;73.62;;;41.08;;
57846;SDS011;43675;50.030;21.952;2022-10-31T04:18:41;76.12;;;42.48;;
57846;SDS011;43675;50.030;21.952;2022-10-31T04:21:07;83.33;;;41.77;;
57846;SDS011;43675;50.030;21.952;2022-10-31T04:23:34;77.00;;;41.68;;
57846;SDS011;43675;50.030;21.952;2022-10-31T04:26:01;77.53;;;43.38;;
57846;SDS011;43675;50.030;21.952;2022-10-31T04:28:33;83.30;;;41.08;;
57846;SDS011;43675;50.030;21.952;2022-10-31T04:30:59;79.20;;;40.15;;
57846;SDS011;43675;50.030;21.952;2022-10-31T04:33:25;74.62;;;39.65;;
57846;SDS011;43675;50.030;21.952;2022-10-31T04:35:50;69.37;;;40.90;;
57846;SDS011;43675;50.030;21.952;2022-10-31T04:38:16;79.30;;;41.90;;
57846;SDS011;43675;50.030;21.952;2022-10-31T04:40:42;74.55;;;41.73;;
57846;SDS011;43675;50.030;21.952;2022-10-31T04:43:07;75.75;;;42.90;;
57846;SDS011;43675;50.030;21.952;2022-10-31T04:45:33;73.62;;;40.52;;
57846;SDS011;43675;50.030;21.952;2022-10-31T04:47:58;75.78;;;41.10;;
57846;SDS011;43675;50.030;21.952;2022-10-31T04:50:24;80.05;;;41.88;;
57846;SDS011;43675;50.030;21.952;2022-10-31T04:52:50;82.15;;;43.15;;
57846;SDS011;43675;50.030;21.952;2022-10-31T04:55:16;77.70;;;44.60;;
57846;SDS011;43675;50.030;21.952;2022-10-31T04:57:42;77.37;;;43.78;;
57846;SDS011;43675;50.030;21.952;2022-10-31T05:00:16;65.03;;;40.38;;
57846;SDS011;43675;50.030;21.952;2022-10-31T05:02:44;83.20;;;42.03;;
57846;SDS011;43675;50.030;21.952;2022-10-31T05:05:12;71.15;;;41.33;;
57846;SDS011;43675;50.030;21.952;2022-10-31T05:07:40;73.05;;;41.37;;
57846;SDS011;43675;50.030;21.952;2022-10-31T05:10:08;70.65;;;41.90;;
57846;SDS011;43675;50.030;21.952;2022-10-31T05:12:35;67.27;;;45.15;;
57846;SDS011;43675;50.030;21.952;2022-10-31T05:15:01;68.70;;;46.00;;
57846;SDS011;43675;50.030;21.952;2022-10-31T05:17:26;78.55;;;45.12;;
57846;SDS011;43675;50.030;21.952;2022-10-31T05:19:52;71.22;;;46.30;;
57846;SDS011;43675;50.030;21.952;2022-10-31T05:22:17;73.62;;;44.33;;
57846;SDS011;43675;50.030;21.952;2022-10-31T05:24:43;71.77;;;44.80;;
57846;SDS011;43675;50.030;21.952;2022-10-31T05:27:09;64.67;;;44.45;;
57846;SDS011;43675;50.030;21.952;2022-10-31T05:29:41;66.15;;;44.30;;
57846;SDS011;43675;50.030;21.952;2022-10-31T05:32:07;74.58;;;44.38;;
57846;SDS011;43675;50.030;21.952;2022-10-31T05:34:32;65.55;;;40.52;;
57846;SDS011;43675;50.030;21.952;2022-10-31T05:36:58;65.08;;;40.60;;
57846;SDS011;43675;50.030;21.952;2022-10-31T05:39:23;72.90;;;42.17;;
57846;SDS011;43675;50.030;21.952;2022-10-31T05:41:49;65.35;;;41.18;;
57846;SDS011;43675;50.030;21.952;2022-10-31T05:44:15;57.67;;;41.13;;
57846;SDS011;43675;50.030;21.952;2022-10-31T05:46:40;61.48;;;40.90;;
57846;SDS011;43675;50.030;21.952;2022-10-31T05:49:13;59.98;;;40.55;;
57846;SDS011;43675;50.030;21.952;2022-10-31T05:51:39;57.20;;;39.90;;
57846;SDS011;43675;50.030;21.952;2022-10-31T05:54:11;55.70;;;42.83;;
57846;SDS011;43675;50.030;21.952;2022-10-31T05:56:37;58.25;;;41.55;;
57846;SDS011;43675;50.030;21.952;2022-10-31T05:59:02;55.60;;;40.80;;
57846;SDS011;43675;50.030;21.952;2022-10-31T06:01:28;53.33;;;38.48;;
57846;SDS011;43675;50.030;21.952;2022-10-31T06:03:53;51.10;;;39.48;;
57846;SDS011;43675;50.030;21.952;2022-10-31T06:06:19;52.48;;;38.00;;
57846;SDS011;43675;50.030;21.952;2022-10-31T06:08:44;52.27;;;39.27;;
57846;SDS011;43675;50.030;21.952;2022-10-31T06:11:10;51.50;;;38.78;;
57846;SDS011;43675;50.030;21.952;2022-10-31T06:13:36;49.93;;;40.52;;
57846;SDS011;43675;50.030;21.952;2022-10-31T06:16:01;51.35;;;39.13;;
57846;SDS011;43675;50.030;21.952;2022-10-31T06:18:27;51.63;;;39.73;;
57846;SDS011;43675;50.030;21.952;2022-10-31T06:20:52;52.58;;;39.85;;
57846;SDS011;43675;50.030;21.952;2022-10-31T06:23:18;48.02;;;38.73;;
57846;SDS011;43675;50.030;21.952;2022-10-31T06:25:47;49.80;;;38.35;;
57846;SDS011;43675;50.030;21.952;2022-10-31T06:28:15;46.23;;;38.63;;
57846;SDS011;43675;50.030;21.952;2022-10-31T06:30:48;46.15;;;37.95;;
57846;SDS011;43675;50.030;21.952;2022-10-31T06:33:13;47.53;;;38.28;;
57846;SDS011;43675;50.030;21.952;2022-10-31T06:35:44;44.27;;;36.90;;
57846;SDS011;43675;50.030;21.952;2022-10-31T06:38:10;44.13;;;37.48;;
57846;SDS011;43675;50.030;21.952;2022-10-31T06:40:35;43.28;;;35.70;;
57846;SDS011;43675;50.030;21.952;2022-10-31T06:43:01;43.48;;;35.30;;
57846;SDS011;43675;50.030;21.952;2022-10-31T06:45:27;41.30;;;35.98;;
57846;SDS011;43675;50.030;21.952;2022-10-31T06:47:53;39.75;;;34.00;;
57846;SDS011;43675;50.030;21.952;2022-10-31T06:50:26;41.85;;;36.68;;
57846;SDS011;43675;50.030;21.952;2022-10-31T06:52:52;42.30;;;34.25;;
57846;SDS011;43675;50.030;21.952;2022-10-31T06:55:19;41.88;;;34.80;;
57846;SDS011;43675;50.030;21.952;2022-10-31T06:57:49;46.85;;;37.53;;
57846;SDS011;43675;50.030;21.952;2022-10-31T07:00:17;40.45;;;35.25;;
57846;SDS011;43675;50.030;21.952;2022-10-31T07:02:43;39.80;;;35.50;;
57846;SDS011;43675;50.030;21.952;2022-10-31T07:05:11;38.75;;;34.55;;
57846;SDS011;43675;50.030;21.952;2022-10-31T07:07:36;39.38;;;35.28;;
57846;SDS011;43675;50.030;21.952;2022-10-31T07:10:02;39.92;;;32.13;;
57846;SDS011;43675;50.030;21.952;2022-10-31T07:12:28;35.73;;;31.55;;
57846;SDS011;43675;50.030;21.952;2022-10-31T07:14:54;38.53;;;33.20;;
57846;SDS011;43675;50.030;21.952;2022-10-31T07:17:22;38.00;;;32.88;;
57846;SDS011;43675;50.030;21.952;2022-10-31T07:19:48;39.40;;;32.35;;
57846;SDS011;43675;50.030;21.952;2022-10-31T07:22:14;39.58;;;33.67;;
57846;SDS011;43675;50.030;21.952;2022-10-31T07:24:39;36.38;;;32.48;;
57846;SDS011;43675;50.030;21.952;2022-10-31T07:27:05;37.38;;;33.33;;
57846;SDS011;43675;50.030;21.952;2022-10-31T07:29:31;39.63;;;35.40;;
57846;SDS011;43675;50.030;21.952;2022-10-31T07:32:10;38.80;;;34.70;;
57846;SDS011;43675;50.030;21.952;2022-10-31T07:34:35;38.78;;;34.88;;
57846;SDS011;43675;50.030;21.952;2022-10-31T07:37:01;36.17;;;32.67;;
57846;SDS011;43675;50.030;21.952;2022-10-31T07:39:27;36.10;;;32.60;;
57846;SDS011;43675;50.030;21.952;2022-10-31T07:41:52;37.17;;;33.28;;
57846;SDS011;43675;50.030;21.952;2022-10-31T07:44:18;35.88;;;32.13;;
57846;SDS011;43675;50.030;21.952;2022-10-31T07:46:44;33.98;;;30.48;;
57846;SDS011;43675;50.030;21.952;2022-10-31T07:49:09;32.38;;;29.18;;
57846;SDS011;43675;50.030;21.952;2022-10-31T07:51:35;32.50;;;29.10;;
57846;SDS011;43675;50.030;21.952;2022-10-31T07:54:00;31.33;;;28.12;;
57846;SDS011;43675;50.030;21.952;2022-10-31T07:56:26;32.10;;;28.90;;
57846;SDS011;43675;50.030;21.952;2022-10-31T07:58:52;32.08;;;28.87;;
57846;SDS011;43675;50.030;21.952;2022-10-31T08:01:17;31.85;;;28.42;;
57846;SDS011;43675;50.030;21.952;2022-10-31T08:03:43;33.30;;;30.27;;
57846;SDS011;43675;50.030;21.952;2022-10-31T08:06:08;33.40;;;30.15;;
57846;SDS011;43675;50.030;21.952;2022-10-31T08:08:34;31.68;;;28.75;;
57846;SDS011;43675;50.030;21.952;2022-10-31T08:10:59;32.48;;;29.23;;
57846;SDS011;43675;50.030;21.952;2022-10-31T08:13:25;30.27;;;27.58;;
57846;SDS011;43675;50.030;21.952;2022-10-31T08:15:51;30.68;;;27.77;;
57846;SDS011;43675;50.030;21.952;2022-10-31T08:18:18;28.57;;;25.95;;
57846;SDS011;43675;50.030;21.952;2022-10-31T08:20:51;29.00;;;26.12;;
57846;SDS011;43675;50.030;21.952;2022-10-31T08:23:18;27.37;;;24.77;;
57846;SDS011;43675;50.030;21.952;2022-10-31T08:25:44;27.80;;;25.23;;
57846;SDS011;43675;50.030;21.952;2022-10-31T08:28:10;28.25;;;25.75;;
57846;SDS011;43675;50.030;21.952;2022-10-31T08:30:44;28.30;;;25.75;;
57846;SDS011;43675;50.030;21.952;2022-10-31T08:33:17;25.23;;;22.93;;
57846;SDS011;43675;50.030;21.952;2022-10-31T08:35:44;26.05;;;23.38;;
57846;SDS011;43675;50.030;21.952;2022-10-31T08:38:10;25.05;;;22.67;;
57846;SDS011;43675;50.030;21.952;2022-10-31T08:40:37;25.23;;;22.73;;
57846;SDS011;43675;50.030;21.952;2022-10-31T08:43:04;25.65;;;23.15;;
57846;SDS011;43675;50.030;21.952;2022-10-31T08:45:37;24.10;;;21.70;;
57846;SDS011;43675;50.030;21.952;2022-10-31T08:48:04;24.23;;;22.13;;
57846;SDS011;43675;50.030;21.952;2022-10-31T08:50:33;24.47;;;22.15;;
57846;SDS011;43675;50.030;21.952;2022-10-31T08:53:09;26.33;;;23.90;;
57846;SDS011;43675;50.030;21.952;2022-10-31T08:55:36;24.32;;;22.32;;
57846;SDS011;43675;50.030;21.952;2022-10-31T08:58:04;22.25;;;19.85;;
57846;SDS011;43675;50.030;21.952;2022-10-31T09:00:31;22.48;;;20.15;;
57846;SDS011;43675;50.030;21.952;2022-10-31T09:02:59;22.50;;;20.40;;
57846;SDS011;43675;50.030;21.952;2022-10-31T09:05:27;21.85;;;19.80;;
57846;SDS011;43675;50.030;21.952;2022-10-31T09:07:56;21.23;;;19.35;;
57846;SDS011;43675;50.030;21.952;2022-10-31T09:10:24;22.85;;;20.52;;
57846;SDS011;43675;50.030;21.952;2022-10-31T09:12:57;22.37;;;19.95;;
57846;SDS011;43675;50.030;21.952;2022-10-31T09:15:24;22.42;;;20.27;;
57846;SDS011;43675;50.030;21.952;2022-10-31T09:17:51;21.80;;;19.62;;
57846;SDS011;43675;50.030;21.952;2022-10-31T09:20:16;22.85;;;20.80;;
57846;SDS011;43675;50.030;21.952;2022-10-31T09:22:43;22.30;;;20.30;;
57846;SDS011;43675;50.030;21.952;2022-10-31T09:25:09;21.65;;;19.48;;
57846;SDS011;43675;50.030;21.952;2022-10-31T09:27:35;22.00;;;19.80;;
57846;SDS011;43675;50.030;21.952;2022-10-31T09:30:08;22.07;;;20.08;;
57846;SDS011;43675;50.030;21.952;2022-10-31T09:32:34;21.17;;;19.00;;
57846;SDS011;43675;50.030;21.952;2022-10-31T09:35:00;21.48;;;19.48;;
57846;SDS011;43675;50.030;21.952;2022-10-31T09:37:25;20.90;;;19.00;;
57846;SDS011;43675;50.030;21.952;2022-10-31T09:39:51;21.82;;;19.65;;
57846;SDS011;43675;50.030;21.952;2022-10-31T09:42:29;22.13;;;20.10;;
57846;SDS011;43675;50.030;21.952;2022-10-31T09:56:14;20.88;;;19.05;;
57846;SDS011;43675;50.030;21.952;2022-10-31T09:58:43;21.65;;;19.65;;
57846;SDS011;43675;50.030;21.952;2022-10-31T10:01:16;23.50;;;19.45;;
57846;SDS011;43675;50.030;21.952;2022-10-31T10:03:45;22.67;;;20.23;;
57846;SDS011;43675;50.030;21.952;2022-10-31T10:06:21;21.05;;;19.10;;
57846;SDS011;43675;50.030;21.952;2022-10-31T10:08:52;20.43;;;18.30;;
57846;SDS011;43675;50.030;21.952;2022-10-31T10:22:36;21.52;;;19.30;;
57846;SDS011;43675;50.030;21.952;2022-10-31T10:25:25;21.12;;;19.20;;
57846;SDS011;43675;50.030;21.952;2022-10-31T10:28:04;21.15;;;18.87;;
57846;SDS011;43675;50.030;21.952;2022-10-31T10:30:45;21.30;;;19.27;;
57846;SDS011;43675;50.030;21.952;2022-10-31T10:33:18;20.55;;;18.70;;
57846;SDS011;43675;50.030;21.952;2022-10-31T10:36:01;21.55;;;19.42;;
57846;SDS011;43675;50.030;21.952;2022-10-31T10:38:34;21.48;;;19.05;;
57846;SDS011;43675;50.030;21.952;2022-10-31T10:41:16;19.77;;;17.98;;
57846;SDS011;43675;50.030;21.952;2022-10-31T10:43:42;20.20;;;18.20;;
57846;SDS011;43675;50.030;21.952;2022-10-31T10:51:46;21.05;;;18.67;;
57846;SDS011;43675;50.030;21.952;2022-10-31T11:00:00;21.30;;;19.15;;
57846;SDS011;43675;50.030;21.952;2022-10-31T11:02:31;21.20;;;19.12;;
57846;SDS011;43675;50.030;21.952;2022-10-31T11:04:57;21.62;;;19.62;;
57846;SDS011;43675;50.030;21.952;2022-10-31T11:07:25;21.52;;;19.50;;
57846;SDS011;43675;50.030;21.952;2022-10-31T11:09:50;21.60;;;19.57;;
57846;SDS011;43675;50.030;21.952;2022-10-31T11:12:20;23.25;;;19.77;;
57846;SDS011;43675;50.030;21.952;2022-10-31T11:14:53;22.40;;;19.32;;
57846;SDS011;43675;50.030;21.952;2022-10-31T11:22:41;22.67;;;19.82;;
57846;SDS011;43675;50.030;21.952;2022-10-31T11:25:21;20.77;;;18.85;;
57846;SDS011;43675;50.030;21.952;2022-10-31T11:28:10;22.40;;;18.85;;
57846;SDS011;43675;50.030;21.952;2022-10-31T11:30:42;20.27;;;18.32;;
57846;SDS011;43675;50.030;21.952;2022-10-31T11:33:13;19.77;;;18.00;;
57846;SDS011;43675;50.030;21.952;2022-10-31T11:35:43;20.48;;;18.48;;
57846;SDS011;43675;50.030;21.952;2022-10-31T11:38:12;20.60;;;18.57;;
57846;SDS011;43675;50.030;21.952;2022-10-31T11:40:39;21.30;;;19.15;;
57846;SDS011;43675;50.030;21.952;2022-10-31T11:43:12;21.10;;;18.90;;
57846;SDS011;43675;50.030;21.952;2022-10-31T11:45:40;21.23;;;19.23;;
57846;SDS011;43675;50.030;21.952;2022-10-31T11:48:14;20.77;;;18.82;;
57846;SDS011;43675;50.030;21.952;2022-10-31T11:50:47;20.85;;;18.75;;
57846;SDS011;43675;50.030;21.952;2022-10-31T11:53:22;21.55;;;19.35;;
57846;SDS011;43675;50.030;21.952;2022-10-31T11:58:43;22.65;;;19.98;;
57846;SDS011;43675;50.030;21.952;2022-10-31T12:01:28;21.07;;;19.07;;
57846;SDS011;43675;50.030;21.952;2022-10-31T12:04:11;24.37;;;19.50;;
57846;SDS011;43675;50.030;21.952;2022-10-31T12:06:39;24.67;;;19.52;;
57846;SDS011;43675;50.030;21.952;2022-10-31T12:09:14;22.10;;;19.90;;
57846;SDS011;43675;50.030;21.952;2022-10-31T12:17:44;22.73;;;19.48;;
57846;SDS011;43675;50.030;21.952;2022-10-31T12:23:06;21.55;;;19.25;;
57846;SDS011;43675;50.030;21.952;2022-10-31T12:26:06;21.25;;;18.75;;
57846;SDS011;43675;50.030;21.952;2022-10-31T12:31:21;21.40;;;19.35;;
57846;SDS011;43675;50.030;21.952;2022-10-31T12:34:09;22.45;;;20.27;;
57846;SDS011;43675;50.030;21.952;2022-10-31T12:36:52;21.73;;;19.77;;
57846;SDS011;43675;50.030;21.952;2022-10-31T12:45:07;22.52;;;19.10;;
57846;SDS011;43675;50.030;21.952;2022-10-31T12:50:34;24.25;;;19.12;;
57846;SDS011;43675;50.030;21.952;2022-10-31T12:53:32;20.95;;;18.85;;
57846;SDS011;43675;50.030;21.952;2022-10-31T12:55:53;21.57;;;19.42;;
57846;SDS011;43675;50.030;21.952;2022-10-31T12:58:33;20.65;;;18.73;;
57846;SDS011;43675;50.030;21.952;2022-10-31T13:01:07;21.80;;;19.57;;
57846;SDS011;43675;50.030;21.952;2022-10-31T13:03:50;21.20;;;19.00;;
57846;SDS011;43675;50.030;21.952;2022-10-31T13:06:25;21.23;;;18.98;;
57846;SDS011;43675;50.030;21.952;2022-10-31T13:09:00;22.13;;;19.80;;
57846;SDS011;43675;50.030;21.952;2022-10-31T13:11:33;22.75;;;18.95;;
57846;SDS011;43675;50.030;21.952;2022-10-31T13:16:55;21.50;;;19.23;;
57846;SDS011;43675;50.030;21.952;2022-10-31T13:19:28;26.25;;;19.67;;
57846;SDS011;43675;50.030;21.952;2022-10-31T13:22:18;21.90;;;19.70;;
57846;SDS011;43675;50.030;21.952;2022-10-31T13:27:22;24.15;;;18.92;;
57846;SDS011;43675;50.030;21.952;2022-10-31T13:29:58;21.97;;;19.25;;
57846;SDS011;43675;50.030;21.952;2022-10-31T13:32:23;23.57;;;18.85;;
57846;SDS011;43675;50.030;21.952;2022-10-31T13:34:53;21.73;;;19.62;;
57846;SDS011;43675;50.030;21.952;2022-10-31T13:45:28;21.35;;;19.05;;
57846;SDS011;43675;50.030;21.952;2022-10-31T13:47:55;22.20;;;19.67;;
57846;SDS011;43675;50.030;21.952;2022-10-31T14:01:35;23.70;;;19.73;;
57846;SDS011;43675;50.030;21.952;2022-10-31T14:04:06;23.10;;;19.05;;
57846;SDS011;43675;50.030;21.952;2022-10-31T14:06:39;22.40;;;19.27;;
57846;SDS011;43675;50.030;21.952;2022-10-31T14:09:03;24.63;;;19.30;;
57846;SDS011;43675;50.030;21.952;2022-10-31T14:11:29;22.20;;;18.52;;
57846;SDS011;43675;50.030;21.952;2022-10-31T14:13:55;20.50;;;18.30;;
57846;SDS011;43675;50.030;21.952;2022-10-31T14:16:25;21.23;;;18.73;;
57846;SDS011;43675;50.030;21.952;2022-10-31T14:18:59;21.17;;;19.02;;
57846;SDS011;43675;50.030;21.952;2022-10-31T14:21:41;20.68;;;18.50;;
57846;SDS011;43675;50.030;21.952;2022-10-31T14:24:41;23.55;;;19.40;;
57846;SDS011;43675;50.030;21.952;2022-10-31T14:27:01;21.50;;;19.10;;
57846;SDS011;43675;50.030;21.952;2022-10-31T14:29:35;21.75;;;19.27;;
57846;SDS011;43675;50.030;21.952;2022-10-31T14:32:14;22.58;;;18.80;;
57846;SDS011;43675;50.030;21.952;2022-10-31T14:34:57;23.22;;;19.17;;
57846;SDS011;43675;50.030;21.952;2022-10-31T14:46:00;25.40;;;19.62;;
57846;SDS011;43675;50.030;21.952;2022-10-31T14:48:48;30.80;;;20.25;;
57846;SDS011;43675;50.030;21.952;2022-10-31T14:51:16;22.48;;;19.87;;
57846;SDS011;43675;50.030;21.952;2022-10-31T14:53:49;29.77;;;19.77;;
57846;SDS011;43675;50.030;21.952;2022-10-31T14:56:24;23.80;;;19.50;;
57846;SDS011;43675;50.030;21.952;2022-10-31T14:58:52;24.12;;;19.02;;
57846;SDS011;43675;50.030;21.952;2022-10-31T15:01:28;26.50;;;19.75;;
57846;SDS011;43675;50.030;21.952;2022-10-31T15:06:43;25.57;;;20.08;;
57846;SDS011;43675;50.030;21.952;2022-10-31T15:09:25;25.75;;;21.15;;
57846;SDS011;43675;50.030;21.952;2022-10-31T15:11:49;26.52;;;20.85;;
57846;SDS011;43675;50.030;21.952;2022-10-31T15:14:22;26.48;;;21.20;;
57846;SDS011;43675;50.030;21.952;2022-10-31T15:16:50;27.30;;;21.60;;
57846;SDS011;43675;50.030;21.952;2022-10-31T15:19:27;23.55;;;20.70;;
57846;SDS011;43675;50.030;21.952;2022-10-31T15:21:52;28.10;;;20.12;;
57846;SDS011;43675;50.030;21.952;2022-10-31T15:24:18;27.82;;;21.17;;
57846;SDS011;43675;50.030;21.952;2022-10-31T15:26:52;26.80;;;21.68;;
57846;SDS011;43675;50.030;21.952;2022-10-31T15:29:20;26.77;;;21.17;;
57846;SDS011;43675;50.030;21.952;2022-10-31T15:34:44;30.95;;;23.57;;
57846;SDS011;43675;50.030;21.952;2022-10-31T15:37:18;38.00;;;25.90;;
57846;SDS011;43675;50.030;21.952;2022-10-31T15:39:43;54.25;;;29.32;;
57846;SDS011;43675;50.030;21.952;2022-10-31T15:42:22;58.63;;;32.98;;
57846;SDS011;43675;50.030;21.952;2022-10-31T15:45:05;59.15;;;35.60;;
57846;SDS011;43675;50.030;21.952;2022-10-31T15:47:25;54.77;;;33.53;;
57846;SDS011;43675;50.030;21.952;2022-10-31T15:52:40;37.42;;;29.27;;
57846;SDS011;43675;50.030;21.952;2022-10-31T15:57:47;33.40;;;25.17;;
57846;SDS011;43675;50.030;21.952;2022-10-31T16:00:28;37.00;;;26.75;;
57846;SDS011;43675;50.030;21.952;2022-10-31T16:03:06;40.65;;;26.95;;
57846;SDS011;43675;50.030;21.952;2022-10-31T16:05:35;38.17;;;27.50;;
57846;SDS011;43675;50.030;21.952;2022-10-31T16:08:02;35.05;;;29.12;;
57846;SDS011;43675;50.030;21.952;2022-10-31T16:10:32;36.88;;;29.55;;
57846;SDS011;43675;50.030;21.952;2022-10-31T16:12:58;42.43;;;29.05;;
57846;SDS011;43675;50.030;21.952;2022-10-31T16:15:26;37.55;;;29.50;;
57846;SDS011;43675;50.030;21.952;2022-10-31T16:17:52;34.50;;;29.23;;
57846;SDS011;43675;50.030;21.952;2022-10-31T16:20:21;46.30;;;31.37;;
57846;SDS011;43675;50.030;21.952;2022-10-31T16:22:52;42.88;;;31.27;;
57846;SDS011;43675;50.030;21.952;2022-10-31T16:25:25;42.03;;;31.40;;
57846;SDS011;43675;50.030;21.952;2022-10-31T16:27:52;38.83;;;30.17;;
57846;SDS011;43675;50.030;21.952;2022-10-31T16:32:58;38.40;;;31.05;;
57846;SDS011;43675;50.030;21.952;2022-10-31T16:35:31;42.78;;;32.08;;